sensor_id;sensor_type;location;lat;lon;timestamp;P1;durP1;ratioP1;P2;durP2;ratioP2
24685;SDS011;12804;51.176;4.452;2023-03-12T00:00:45;6.60;;;3.22;;
24685;SDS011;12804;51.176;4.452;2023-03-12T00:03:12;6.00;;;3.58;;
24685;SDS011;12804;51.176;4.452;2023-03-12T00:05:39;7.53;;;3.50;;
24685;SDS011;12804;51.176;4.452;2023-03-12T00:08:06;11.32;;;3.78;;
24685;SDS011;12804;51.176;4.452;2023-03-12T00:10:32;5.85;;;3.25;;
24685;SDS011;12804;51.176;4.452;2023-03-12T00:12:58;8.25;;;3.78;;
24685;SDS011;12804;51.176;4.452;2023-03-12T00:15:25;12.30;;;3.97;;
24685;SDS011;12804;51.176;4.452;2023-03-12T00:17:51;6.53;;;3.15;;
24685;SDS011;12804;51.176;4.452;2023-03-12T00:20:17;6.05;;;3.40;;
24685;SDS011;12804;51.176;4.452;2023-03-12T00:22:43;6.57;;;3.58;;
24685;SDS011;12804;51.176;4.452;2023-03-12T00:25:10;8.43;;;3.33;;
24685;SDS011;12804;51.176;4.452;2023-03-12T00:27:38;10.88;;;3.45;;
24685;SDS011;12804;51.176;4.452;2023-03-12T00:30:04;8.85;;;3.55;;
24685;SDS011;12804;51.176;4.452;2023-03-12T00:32:31;7.68;;;3.42;;
24685;SDS011;12804;51.176;4.452;2023-03-12T00:34:57;6.93;;;3.47;;
24685;SDS011;12804;51.176;4.452;2023-03-12T00:37:23;9.15;;;3.53;;
24685;SDS011;12804;51.176;4.452;2023-03-12T00:39:49;5.38;;;3.30;;
24685;SDS011;12804;51.176;4.452;2023-03-12T00:42:15;6.97;;;3.22;;
24685;SDS011;12804;51.176;4.452;2023-03-12T00:44:41;5.80;;;3.50;;
24685;SDS011;12804;51.176;4.452;2023-03-12T00:47:08;6.65;;;3.30;;
24685;SDS011;12804;51.176;4.452;2023-03-12T00:49:35;8.75;;;3.30;;
24685;SDS011;12804;51.176;4.452;2023-03-12T00:52:01;5.78;;;3.55;;
24685;SDS011;12804;51.176;4.452;2023-03-12T00:54:27;6.07;;;3.03;;
24685;SDS011;12804;51.176;4.452;2023-03-12T00:56:53;5.90;;;3.63;;
24685;SDS011;12804;51.176;4.452;2023-03-12T00:59:19;10.25;;;4.20;;
24685;SDS011;12804;51.176;4.452;2023-03-12T01:01:45;11.35;;;3.58;;
24685;SDS011;12804;51.176;4.452;2023-03-12T01:04:11;10.38;;;4.40;;
24685;SDS011;12804;51.176;4.452;2023-03-12T01:06:36;7.80;;;3.85;;
24685;SDS011;12804;51.176;4.452;2023-03-12T01:09:03;6.07;;;3.20;;
24685;SDS011;12804;51.176;4.452;2023-03-12T01:11:31;7.75;;;3.40;;
24685;SDS011;12804;51.176;4.452;2023-03-12T01:14:00;7.82;;;3.53;;
24685;SDS011;12804;51.176;4.452;2023-03-12T01:16:27;6.55;;;3.80;;
24685;SDS011;12804;51.176;4.452;2023-03-12T01:18:57;8.10;;;3.55;;
24685;SDS011;12804;51.176;4.452;2023-03-12T01:21:25;11.52;;;3.85;;
24685;SDS011;12804;51.176;4.452;2023-03-12T01:23:52;7.03;;;3.55;;
24685;SDS011;12804;51.176;4.452;2023-03-12T01:26:19;8.20;;;4.00;;
24685;SDS011;12804;51.176;4.452;2023-03-12T01:28:45;10.73;;;3.50;;
24685;SDS011;12804;51.176;4.452;2023-03-12T01:31:12;9.20;;;3.90;;
24685;SDS011;12804;51.176;4.452;2023-03-12T01:33:39;7.80;;;4.18;;
24685;SDS011;12804;51.176;4.452;2023-03-12T01:36:14;8.32;;;3.78;;
24685;SDS011;12804;51.176;4.452;2023-03-12T01:38:42;5.65;;;3.53;;
24685;SDS011;12804;51.176;4.452;2023-03-12T01:41:08;6.78;;;3.38;;
24685;SDS011;12804;51.176;4.452;2023-03-12T01:43:34;9.88;;;3.85;;
24685;SDS011;12804;51.176;4.452;2023-03-12T01:48:44;8.57;;;4.03;;
24685;SDS011;12804;51.176;4.452;2023-03-12T01:51:15;14.70;;;4.20;;
24685;SDS011;12804;51.176;4.452;2023-03-12T01:53:44;10.10;;;4.47;;
24685;SDS011;12804;51.176;4.452;2023-03-12T01:56:12;9.23;;;4.32;;
24685;SDS011;12804;51.176;4.452;2023-03-12T01:58:42;10.00;;;4.03;;
24685;SDS011;12804;51.176;4.452;2023-03-12T02:01:13;7.03;;;4.03;;
24685;SDS011;12804;51.176;4.452;2023-03-12T02:03:42;6.82;;;4.15;;
24685;SDS011;12804;51.176;4.452;2023-03-12T02:06:12;9.13;;;4.18;;
24685;SDS011;12804;51.176;4.452;2023-03-12T02:08:41;8.27;;;3.88;;
24685;SDS011;12804;51.176;4.452;2023-03-12T02:11:10;7.70;;;4.25;;
24685;SDS011;12804;51.176;4.452;2023-03-12T02:13:37;9.40;;;4.07;;
24685;SDS011;12804;51.176;4.452;2023-03-12T02:16:04;6.93;;;3.75;;
24685;SDS011;12804;51.176;4.452;2023-03-12T02:18:31;7.45;;;3.72;;
24685;SDS011;12804;51.176;4.452;2023-03-12T02:21:15;6.15;;;3.92;;
24685;SDS011;12804;51.176;4.452;2023-03-12T02:23:52;9.77;;;4.18;;
24685;SDS011;12804;51.176;4.452;2023-03-12T02:26:37;9.52;;;3.85;;
24685;SDS011;12804;51.176;4.452;2023-03-12T02:29:04;8.57;;;3.70;;
24685;SDS011;12804;51.176;4.452;2023-03-12T02:31:36;6.15;;;3.80;;
24685;SDS011;12804;51.176;4.452;2023-03-12T02:34:06;5.47;;;3.60;;
24685;SDS011;12804;51.176;4.452;2023-03-12T02:36:34;8.35;;;3.90;;
24685;SDS011;12804;51.176;4.452;2023-03-12T02:39:00;5.10;;;3.30;;
24685;SDS011;12804;51.176;4.452;2023-03-12T02:41:45;4.68;;;3.40;;
24685;SDS011;12804;51.176;4.452;2023-03-12T02:44:28;6.90;;;3.05;;
24685;SDS011;12804;51.176;4.452;2023-03-12T02:46:57;7.13;;;3.30;;
24685;SDS011;12804;51.176;4.452;2023-03-12T02:49:25;5.78;;;2.95;;
24685;SDS011;12804;51.176;4.452;2023-03-12T02:51:53;5.03;;;2.95;;
24685;SDS011;12804;51.176;4.452;2023-03-12T02:54:19;5.15;;;2.63;;
24685;SDS011;12804;51.176;4.452;2023-03-12T02:56:47;6.70;;;2.63;;
24685;SDS011;12804;51.176;4.452;2023-03-12T02:59:14;5.72;;;2.78;;
24685;SDS011;12804;51.176;4.452;2023-03-12T03:01:42;8.30;;;3.40;;
24685;SDS011;12804;51.176;4.452;2023-03-12T03:04:09;5.60;;;3.22;;
24685;SDS011;12804;51.176;4.452;2023-03-12T03:06:37;8.70;;;3.38;;
24685;SDS011;12804;51.176;4.452;2023-03-12T03:09:05;6.07;;;3.10;;
24685;SDS011;12804;51.176;4.452;2023-03-12T03:11:31;6.82;;;3.03;;
24685;SDS011;12804;51.176;4.452;2023-03-12T03:14:00;8.68;;;2.92;;
24685;SDS011;12804;51.176;4.452;2023-03-12T03:16:28;7.10;;;2.90;;
24685;SDS011;12804;51.176;4.452;2023-03-12T03:18:56;6.55;;;2.95;;
24685;SDS011;12804;51.176;4.452;2023-03-12T03:21:22;7.32;;;2.88;;
24685;SDS011;12804;51.176;4.452;2023-03-12T03:23:48;6.55;;;2.90;;
24685;SDS011;12804;51.176;4.452;2023-03-12T03:26:15;5.68;;;2.95;;
24685;SDS011;12804;51.176;4.452;2023-03-12T03:28:46;5.60;;;2.83;;
24685;SDS011;12804;51.176;4.452;2023-03-12T03:31:13;4.80;;;2.92;;
24685;SDS011;12804;51.176;4.452;2023-03-12T03:33:40;5.78;;;3.08;;
24685;SDS011;12804;51.176;4.452;2023-03-12T03:36:07;6.38;;;2.90;;
24685;SDS011;12804;51.176;4.452;2023-03-12T03:38:40;8.68;;;3.63;;
24685;SDS011;12804;51.176;4.452;2023-03-12T03:41:08;7.20;;;3.00;;
24685;SDS011;12804;51.176;4.452;2023-03-12T03:43:39;5.72;;;3.15;;
24685;SDS011;12804;51.176;4.452;2023-03-12T03:46:05;5.72;;;2.85;;
24685;SDS011;12804;51.176;4.452;2023-03-12T03:48:35;4.43;;;2.70;;
24685;SDS011;12804;51.176;4.452;2023-03-12T03:51:09;6.13;;;2.92;;
24685;SDS011;12804;51.176;4.452;2023-03-12T03:53:38;10.95;;;3.35;;
24685;SDS011;12804;51.176;4.452;2023-03-12T03:56:05;4.85;;;3.00;;
24685;SDS011;12804;51.176;4.452;2023-03-12T03:58:40;10.15;;;3.58;;
24685;SDS011;12804;51.176;4.452;2023-03-12T04:01:06;6.25;;;3.00;;
24685;SDS011;12804;51.176;4.452;2023-03-12T04:03:32;8.15;;;2.83;;
24685;SDS011;12804;51.176;4.452;2023-03-12T04:06:00;8.02;;;2.97;;
24685;SDS011;12804;51.176;4.452;2023-03-12T04:08:28;12.75;;;3.25;;
24685;SDS011;12804;51.176;4.452;2023-03-12T04:10:54;5.78;;;2.63;;
24685;SDS011;12804;51.176;4.452;2023-03-12T04:13:20;7.82;;;2.50;;
24685;SDS011;12804;51.176;4.452;2023-03-12T04:15:47;5.28;;;3.03;;
24685;SDS011;12804;51.176;4.452;2023-03-12T04:18:14;8.82;;;2.80;;
24685;SDS011;12804;51.176;4.452;2023-03-12T04:20:40;6.72;;;2.50;;
24685;SDS011;12804;51.176;4.452;2023-03-12T04:23:06;8.95;;;2.90;;
24685;SDS011;12804;51.176;4.452;2023-03-12T04:25:32;6.57;;;2.70;;
24685;SDS011;12804;51.176;4.452;2023-03-12T04:27:58;5.40;;;2.47;;
24685;SDS011;12804;51.176;4.452;2023-03-12T04:30:25;5.80;;;2.63;;
24685;SDS011;12804;51.176;4.452;2023-03-12T04:32:52;7.97;;;2.67;;
24685;SDS011;12804;51.176;4.452;2023-03-12T04:35:18;6.18;;;2.80;;
24685;SDS011;12804;51.176;4.452;2023-03-12T04:37:44;7.22;;;2.80;;
24685;SDS011;12804;51.176;4.452;2023-03-12T04:40:11;9.05;;;3.05;;
24685;SDS011;12804;51.176;4.452;2023-03-12T04:42:38;6.65;;;2.88;;
24685;SDS011;12804;51.176;4.452;2023-03-12T04:45:05;11.82;;;3.20;;
24685;SDS011;12804;51.176;4.452;2023-03-12T04:47:34;9.55;;;2.90;;
24685;SDS011;12804;51.176;4.452;2023-03-12T04:50:00;4.75;;;2.75;;
24685;SDS011;12804;51.176;4.452;2023-03-12T04:52:26;7.10;;;2.83;;
24685;SDS011;12804;51.176;4.452;2023-03-12T04:54:52;9.85;;;3.30;;
24685;SDS011;12804;51.176;4.452;2023-03-12T04:57:19;7.88;;;2.80;;
24685;SDS011;12804;51.176;4.452;2023-03-12T04:59:45;8.50;;;2.85;;
24685;SDS011;12804;51.176;4.452;2023-03-12T05:02:11;8.27;;;3.22;;
24685;SDS011;12804;51.176;4.452;2023-03-12T05:04:37;7.00;;;2.72;;
24685;SDS011;12804;51.176;4.452;2023-03-12T05:07:03;4.50;;;2.92;;
24685;SDS011;12804;51.176;4.452;2023-03-12T05:09:29;8.98;;;3.10;;
24685;SDS011;12804;51.176;4.452;2023-03-12T05:11:55;7.68;;;2.85;;
24685;SDS011;12804;51.176;4.452;2023-03-12T05:14:21;5.22;;;2.70;;
24685;SDS011;12804;51.176;4.452;2023-03-12T05:16:48;7.72;;;3.50;;
24685;SDS011;12804;51.176;4.452;2023-03-12T05:19:14;7.30;;;2.83;;
24685;SDS011;12804;51.176;4.452;2023-03-12T05:21:41;6.43;;;3.22;;
24685;SDS011;12804;51.176;4.452;2023-03-12T05:24:07;6.25;;;3.40;;
24685;SDS011;12804;51.176;4.452;2023-03-12T05:26:34;7.25;;;3.30;;
24685;SDS011;12804;51.176;4.452;2023-03-12T05:29:16;8.85;;;3.42;;
24685;SDS011;12804;51.176;4.452;2023-03-12T05:31:42;8.00;;;3.17;;
24685;SDS011;12804;51.176;4.452;2023-03-12T05:34:10;9.60;;;3.42;;
24685;SDS011;12804;51.176;4.452;2023-03-12T05:36:38;5.68;;;3.50;;
24685;SDS011;12804;51.176;4.452;2023-03-12T05:39:05;8.77;;;3.65;;
24685;SDS011;12804;51.176;4.452;2023-03-12T05:41:32;8.93;;;3.78;;
24685;SDS011;12804;51.176;4.452;2023-03-12T05:44:04;7.53;;;3.28;;
24685;SDS011;12804;51.176;4.452;2023-03-12T05:46:30;7.18;;;2.97;;
24685;SDS011;12804;51.176;4.452;2023-03-12T05:48:58;4.97;;;3.70;;
24685;SDS011;12804;51.176;4.452;2023-03-12T05:51:24;6.95;;;3.90;;
24685;SDS011;12804;51.176;4.452;2023-03-12T05:53:50;7.40;;;3.90;;
24685;SDS011;12804;51.176;4.452;2023-03-12T05:56:16;6.72;;;3.53;;
24685;SDS011;12804;51.176;4.452;2023-03-12T05:58:43;9.50;;;4.25;;
24685;SDS011;12804;51.176;4.452;2023-03-12T06:01:13;8.57;;;4.60;;
24685;SDS011;12804;51.176;4.452;2023-03-12T06:03:40;6.95;;;4.20;;
24685;SDS011;12804;51.176;4.452;2023-03-12T06:06:08;7.07;;;4.72;;
24685;SDS011;12804;51.176;4.452;2023-03-12T06:08:34;6.32;;;4.82;;
24685;SDS011;12804;51.176;4.452;2023-03-12T06:11:00;11.07;;;5.38;;
24685;SDS011;12804;51.176;4.452;2023-03-12T06:13:26;8.93;;;5.38;;
24685;SDS011;12804;51.176;4.452;2023-03-12T06:15:59;10.70;;;6.35;;
24685;SDS011;12804;51.176;4.452;2023-03-12T06:18:35;8.95;;;6.07;;
24685;SDS011;12804;51.176;4.452;2023-03-12T06:21:12;12.05;;;6.60;;
24685;SDS011;12804;51.176;4.452;2023-03-12T06:23:44;13.02;;;7.00;;
24685;SDS011;12804;51.176;4.452;2023-03-12T06:26:15;14.00;;;6.72;;
24685;SDS011;12804;51.176;4.452;2023-03-12T06:28:43;10.90;;;7.00;;
24685;SDS011;12804;51.176;4.452;2023-03-12T06:31:10;14.35;;;7.78;;
24685;SDS011;12804;51.176;4.452;2023-03-12T06:33:36;13.73;;;7.60;;
24685;SDS011;12804;51.176;4.452;2023-03-12T06:36:03;11.73;;;8.02;;
24685;SDS011;12804;51.176;4.452;2023-03-12T06:38:31;14.25;;;8.93;;
24685;SDS011;12804;51.176;4.452;2023-03-12T06:43:25;13.07;;;9.38;;
24685;SDS011;12804;51.176;4.452;2023-03-12T06:45:53;20.27;;;11.55;;
24685;SDS011;12804;51.176;4.452;2023-03-12T06:48:20;23.95;;;12.23;;
24685;SDS011;12804;51.176;4.452;2023-03-12T06:50:47;21.13;;;12.52;;
24685;SDS011;12804;51.176;4.452;2023-03-12T06:53:12;19.15;;;12.40;;
24685;SDS011;12804;51.176;4.452;2023-03-12T06:55:38;18.90;;;13.02;;
24685;SDS011;12804;51.176;4.452;2023-03-12T06:58:04;21.08;;;13.95;;
24685;SDS011;12804;51.176;4.452;2023-03-12T07:00:30;23.40;;;14.00;;
24685;SDS011;12804;51.176;4.452;2023-03-12T07:02:57;21.65;;;15.38;;
24685;SDS011;12804;51.176;4.452;2023-03-12T07:05:23;21.77;;;14.25;;
24685;SDS011;12804;51.176;4.452;2023-03-12T07:07:49;20.30;;;14.05;;
24685;SDS011;12804;51.176;4.452;2023-03-12T07:10:15;21.75;;;14.30;;
24685;SDS011;12804;51.176;4.452;2023-03-12T07:12:42;25.35;;;14.80;;
24685;SDS011;12804;51.176;4.452;2023-03-12T07:15:08;23.63;;;15.15;;
24685;SDS011;12804;51.176;4.452;2023-03-12T07:17:34;28.85;;;15.85;;
24685;SDS011;12804;51.176;4.452;2023-03-12T07:20:00;25.75;;;14.63;;
24685;SDS011;12804;51.176;4.452;2023-03-12T07:22:26;22.38;;;14.90;;
24685;SDS011;12804;51.176;4.452;2023-03-12T07:24:52;22.70;;;15.52;;
24685;SDS011;12804;51.176;4.452;2023-03-12T07:27:18;26.17;;;15.32;;
24685;SDS011;12804;51.176;4.452;2023-03-12T07:29:44;26.95;;;15.65;;
24685;SDS011;12804;51.176;4.452;2023-03-12T07:32:10;29.02;;;16.58;;
24685;SDS011;12804;51.176;4.452;2023-03-12T07:34:36;26.73;;;16.10;;
24685;SDS011;12804;51.176;4.452;2023-03-12T07:37:02;27.73;;;15.90;;
24685;SDS011;12804;51.176;4.452;2023-03-12T07:39:29;27.77;;;16.95;;
24685;SDS011;12804;51.176;4.452;2023-03-12T07:41:55;24.80;;;15.73;;
24685;SDS011;12804;51.176;4.452;2023-03-12T07:44:21;25.55;;;15.27;;
24685;SDS011;12804;51.176;4.452;2023-03-12T07:46:47;28.15;;;16.23;;
24685;SDS011;12804;51.176;4.452;2023-03-12T07:49:13;34.97;;;16.42;;
24685;SDS011;12804;51.176;4.452;2023-03-12T07:51:39;33.42;;;16.95;;
24685;SDS011;12804;51.176;4.452;2023-03-12T07:54:04;30.00;;;16.38;;
24685;SDS011;12804;51.176;4.452;2023-03-12T07:56:30;31.33;;;17.38;;
24685;SDS011;12804;51.176;4.452;2023-03-12T07:58:59;39.45;;;17.23;;
24685;SDS011;12804;51.176;4.452;2023-03-12T08:01:25;35.25;;;16.70;;
24685;SDS011;12804;51.176;4.452;2023-03-12T08:04:00;35.85;;;17.33;;
24685;SDS011;12804;51.176;4.452;2023-03-12T08:06:27;33.53;;;16.63;;
24685;SDS011;12804;51.176;4.452;2023-03-12T08:08:53;35.17;;;16.80;;
24685;SDS011;12804;51.176;4.452;2023-03-12T08:11:19;38.58;;;17.20;;
24685;SDS011;12804;51.176;4.452;2023-03-12T08:13:46;41.70;;;15.85;;
24685;SDS011;12804;51.176;4.452;2023-03-12T08:16:12;38.42;;;16.40;;
24685;SDS011;12804;51.176;4.452;2023-03-12T08:18:39;34.75;;;15.23;;
24685;SDS011;12804;51.176;4.452;2023-03-12T08:21:07;33.25;;;15.23;;
24685;SDS011;12804;51.176;4.452;2023-03-12T08:23:33;35.10;;;15.40;;
24685;SDS011;12804;51.176;4.452;2023-03-12T08:25:59;39.60;;;14.77;;
24685;SDS011;12804;51.176;4.452;2023-03-12T08:28:25;40.63;;;14.88;;
24685;SDS011;12804;51.176;4.452;2023-03-12T08:30:53;40.75;;;15.07;;
24685;SDS011;12804;51.176;4.452;2023-03-12T08:33:20;32.13;;;13.73;;
24685;SDS011;12804;51.176;4.452;2023-03-12T08:35:47;43.20;;;14.82;;
24685;SDS011;12804;51.176;4.452;2023-03-12T08:38:14;40.35;;;13.73;;
24685;SDS011;12804;51.176;4.452;2023-03-12T08:40:39;33.45;;;13.38;;
24685;SDS011;12804;51.176;4.452;2023-03-12T08:43:05;42.15;;;14.20;;
24685;SDS011;12804;51.176;4.452;2023-03-12T08:45:34;33.13;;;13.60;;
24685;SDS011;12804;51.176;4.452;2023-03-12T08:48:04;38.53;;;13.57;;
24685;SDS011;12804;51.176;4.452;2023-03-12T08:50:30;39.15;;;12.85;;
24685;SDS011;12804;51.176;4.452;2023-03-12T08:52:57;39.72;;;12.07;;
24685;SDS011;12804;51.176;4.452;2023-03-12T08:55:24;36.45;;;11.38;;
24685;SDS011;12804;51.176;4.452;2023-03-12T08:57:52;31.92;;;11.55;;
24685;SDS011;12804;51.176;4.452;2023-03-12T09:00:19;31.60;;;10.95;;
24685;SDS011;12804;51.176;4.452;2023-03-12T09:02:45;32.10;;;10.30;;
24685;SDS011;12804;51.176;4.452;2023-03-12T09:05:11;32.85;;;10.60;;
24685;SDS011;12804;51.176;4.452;2023-03-12T09:07:38;35.55;;;10.43;;
24685;SDS011;12804;51.176;4.452;2023-03-12T09:10:04;31.92;;;10.27;;
24685;SDS011;12804;51.176;4.452;2023-03-12T09:12:31;34.13;;;10.00;;
24685;SDS011;12804;51.176;4.452;2023-03-12T09:14:57;27.40;;;9.15;;
24685;SDS011;12804;51.176;4.452;2023-03-12T09:17:23;29.73;;;8.75;;
24685;SDS011;12804;51.176;4.452;2023-03-12T09:19:48;29.75;;;8.75;;
24685;SDS011;12804;51.176;4.452;2023-03-12T09:22:14;31.27;;;9.30;;
24685;SDS011;12804;51.176;4.452;2023-03-12T09:24:41;35.22;;;9.13;;
24685;SDS011;12804;51.176;4.452;2023-03-12T09:27:07;33.13;;;8.65;;
24685;SDS011;12804;51.176;4.452;2023-03-12T09:29:33;31.45;;;8.32;;
24685;SDS011;12804;51.176;4.452;2023-03-12T09:32:00;30.95;;;8.23;;
24685;SDS011;12804;51.176;4.452;2023-03-12T09:34:26;28.25;;;6.95;;
24685;SDS011;12804;51.176;4.452;2023-03-12T09:36:52;29.00;;;6.80;;
24685;SDS011;12804;51.176;4.452;2023-03-12T09:39:18;37.63;;;7.53;;
24685;SDS011;12804;51.176;4.452;2023-03-12T09:41:45;26.05;;;6.80;;
24685;SDS011;12804;51.176;4.452;2023-03-12T09:44:15;27.92;;;6.78;;
24685;SDS011;12804;51.176;4.452;2023-03-12T09:46:53;31.00;;;6.80;;
24685;SDS011;12804;51.176;4.452;2023-03-12T09:49:26;23.55;;;5.97;;
24685;SDS011;12804;51.176;4.452;2023-03-12T09:52:17;33.22;;;6.72;;
24685;SDS011;12804;51.176;4.452;2023-03-12T09:57:23;24.10;;;5.72;;
24685;SDS011;12804;51.176;4.452;2023-03-12T09:59:51;32.67;;;6.88;;
24685;SDS011;12804;51.176;4.452;2023-03-12T10:04:56;35.30;;;6.78;;
24685;SDS011;12804;51.176;4.452;2023-03-12T10:07:31;25.02;;;6.05;;
24685;SDS011;12804;51.176;4.452;2023-03-12T10:13:02;29.83;;;6.60;;
24685;SDS011;12804;51.176;4.452;2023-03-12T10:16:06;24.98;;;6.07;;
24685;SDS011;12804;51.176;4.452;2023-03-12T10:23:53;29.48;;;5.95;;
24685;SDS011;12804;51.176;4.452;2023-03-12T10:28:59;31.50;;;6.22;;
24685;SDS011;12804;51.176;4.452;2023-03-12T10:31:33;29.83;;;6.18;;
24685;SDS011;12804;51.176;4.452;2023-03-12T10:36:41;30.58;;;6.28;;
24685;SDS011;12804;51.176;4.452;2023-03-12T10:39:12;28.90;;;6.13;;
24685;SDS011;12804;51.176;4.452;2023-03-12T10:41:40;30.98;;;6.30;;
24685;SDS011;12804;51.176;4.452;2023-03-12T10:44:10;28.70;;;5.88;;
24685;SDS011;12804;51.176;4.452;2023-03-12T10:46:45;31.20;;;6.55;;
24685;SDS011;12804;51.176;4.452;2023-03-12T10:51:54;28.02;;;5.45;;
24685;SDS011;12804;51.176;4.452;2023-03-12T10:54:39;28.42;;;5.10;;
24685;SDS011;12804;51.176;4.452;2023-03-12T10:57:06;25.77;;;4.82;;
24685;SDS011;12804;51.176;4.452;2023-03-12T10:59:33;27.92;;;5.28;;
24685;SDS011;12804;51.176;4.452;2023-03-12T11:05:01;30.33;;;5.95;;
24685;SDS011;12804;51.176;4.452;2023-03-12T11:07:42;29.42;;;5.20;;
24685;SDS011;12804;51.176;4.452;2023-03-12T11:12:35;29.08;;;5.97;;
24685;SDS011;12804;51.176;4.452;2023-03-12T11:18:38;27.00;;;5.80;;
24685;SDS011;12804;51.176;4.452;2023-03-12T11:20:51;27.63;;;5.50;;
24685;SDS011;12804;51.176;4.452;2023-03-12T11:23:45;29.90;;;6.25;;
24685;SDS011;12804;51.176;4.452;2023-03-12T11:26:21;26.85;;;5.30;;
24685;SDS011;12804;51.176;4.452;2023-03-12T11:28:50;25.40;;;4.97;;
24685;SDS011;12804;51.176;4.452;2023-03-12T11:31:24;26.13;;;4.97;;
24685;SDS011;12804;51.176;4.452;2023-03-12T11:33:52;23.80;;;5.60;;
24685;SDS011;12804;51.176;4.452;2023-03-12T11:44:33;23.48;;;5.63;;
24685;SDS011;12804;51.176;4.452;2023-03-12T11:47:22;25.65;;;5.63;;
24685;SDS011;12804;51.176;4.452;2023-03-12T11:50:02;27.90;;;5.30;;
24685;SDS011;12804;51.176;4.452;2023-03-12T11:52:46;25.20;;;5.25;;
24685;SDS011;12804;51.176;4.452;2023-03-12T12:00:50;23.25;;;4.65;;
24685;SDS011;12804;51.176;4.452;2023-03-12T12:03:43;23.52;;;5.10;;
24685;SDS011;12804;51.176;4.452;2023-03-12T12:09:17;28.90;;;5.13;;
24685;SDS011;12804;51.176;4.452;2023-03-12T12:19:46;26.60;;;5.32;;
24685;SDS011;12804;51.176;4.452;2023-03-12T12:28:36;24.30;;;4.45;;
24685;SDS011;12804;51.176;4.452;2023-03-12T12:36:30;22.00;;;4.60;;
24685;SDS011;12804;51.176;4.452;2023-03-12T12:39:18;23.33;;;4.88;;
24685;SDS011;12804;51.176;4.452;2023-03-12T12:42:01;29.73;;;5.28;;
24685;SDS011;12804;51.176;4.452;2023-03-12T12:44:30;31.33;;;5.60;;
24685;SDS011;12804;51.176;4.452;2023-03-12T12:47:04;27.55;;;5.05;;
24685;SDS011;12804;51.176;4.452;2023-03-12T12:49:47;31.90;;;5.07;;
24685;SDS011;12804;51.176;4.452;2023-03-12T12:52:21;27.75;;;5.30;;
24685;SDS011;12804;51.176;4.452;2023-03-12T12:54:50;35.17;;;5.15;;
24685;SDS011;12804;51.176;4.452;2023-03-12T12:57:39;33.05;;;5.97;;
24685;SDS011;12804;51.176;4.452;2023-03-12T13:03:15;29.42;;;5.53;;
24685;SDS011;12804;51.176;4.452;2023-03-12T13:05:52;27.40;;;5.28;;
24685;SDS011;12804;51.176;4.452;2023-03-12T13:13:42;28.58;;;5.05;;
24685;SDS011;12804;51.176;4.452;2023-03-12T13:16:35;25.63;;;4.57;;
24685;SDS011;12804;51.176;4.452;2023-03-12T13:24:58;24.23;;;3.87;;
24685;SDS011;12804;51.176;4.452;2023-03-12T13:27:35;21.63;;;4.07;;
24685;SDS011;12804;51.176;4.452;2023-03-12T13:48:30;22.45;;;4.20;;
24685;SDS011;12804;51.176;4.452;2023-03-12T13:51:01;20.38;;;3.28;;
24685;SDS011;12804;51.176;4.452;2023-03-12T13:53:39;19.30;;;4.13;;
24685;SDS011;12804;51.176;4.452;2023-03-12T13:56:16;28.38;;;5.03;;
24685;SDS011;12804;51.176;4.452;2023-03-12T13:58:47;26.35;;;4.47;;
24685;SDS011;12804;51.176;4.452;2023-03-12T14:01:19;24.85;;;4.90;;
24685;SDS011;12804;51.176;4.452;2023-03-12T14:03:49;20.48;;;3.83;;
24685;SDS011;12804;51.176;4.452;2023-03-12T14:06:20;24.83;;;4.53;;
24685;SDS011;12804;51.176;4.452;2023-03-12T14:09:01;19.60;;;4.45;;
24685;SDS011;12804;51.176;4.452;2023-03-12T14:14:39;26.38;;;4.65;;
24685;SDS011;12804;51.176;4.452;2023-03-12T14:17:18;25.45;;;4.30;;
24685;SDS011;12804;51.176;4.452;2023-03-12T14:20:08;24.25;;;4.47;;
24685;SDS011;12804;51.176;4.452;2023-03-12T14:22:38;25.48;;;4.32;;
24685;SDS011;12804;51.176;4.452;2023-03-12T14:25:15;24.63;;;4.90;;
24685;SDS011;12804;51.176;4.452;2023-03-12T14:27:46;20.40;;;4.35;;
24685;SDS011;12804;51.176;4.452;2023-03-12T14:30:20;23.65;;;4.40;;
24685;SDS011;12804;51.176;4.452;2023-03-12T14:32:51;22.90;;;4.85;;
24685;SDS011;12804;51.176;4.452;2023-03-12T14:35:24;25.73;;;4.80;;
24685;SDS011;12804;51.176;4.452;2023-03-12T14:40:41;24.73;;;4.55;;
24685;SDS011;12804;51.176;4.452;2023-03-12T14:43:35;25.55;;;4.50;;
24685;SDS011;12804;51.176;4.452;2023-03-12T14:46:02;26.63;;;4.60;;
24685;SDS011;12804;51.176;4.452;2023-03-12T14:48:31;27.27;;;5.00;;
24685;SDS011;12804;51.176;4.452;2023-03-12T14:50:59;22.17;;;4.25;;
24685;SDS011;12804;51.176;4.452;2023-03-12T14:53:28;23.60;;;4.45;;
24685;SDS011;12804;51.176;4.452;2023-03-12T14:55:57;22.95;;;4.55;;
24685;SDS011;12804;51.176;4.452;2023-03-12T14:58:54;23.40;;;3.88;;
24685;SDS011;12804;51.176;4.452;2023-03-12T15:01:26;20.80;;;4.25;;
24685;SDS011;12804;51.176;4.452;2023-03-12T15:06:37;18.15;;;3.47;;
24685;SDS011;12804;51.176;4.452;2023-03-12T15:09:13;21.00;;;4.25;;
24685;SDS011;12804;51.176;4.452;2023-03-12T15:11:42;21.83;;;3.97;;
24685;SDS011;12804;51.176;4.452;2023-03-12T15:14:12;24.33;;;3.65;;
24685;SDS011;12804;51.176;4.452;2023-03-12T15:16:40;22.25;;;4.15;;
24685;SDS011;12804;51.176;4.452;2023-03-12T15:19:11;23.85;;;4.50;;
24685;SDS011;12804;51.176;4.452;2023-03-12T15:21:40;25.48;;;4.30;;
24685;SDS011;12804;51.176;4.452;2023-03-12T15:24:06;22.23;;;3.80;;
24685;SDS011;12804;51.176;4.452;2023-03-12T15:26:37;23.42;;;3.88;;
24685;SDS011;12804;51.176;4.452;2023-03-12T15:31:54;24.33;;;4.35;;
24685;SDS011;12804;51.176;4.452;2023-03-12T15:36:58;20.38;;;4.38;;
24685;SDS011;12804;51.176;4.452;2023-03-12T15:39:30;24.45;;;4.35;;
24685;SDS011;12804;51.176;4.452;2023-03-12T15:42:06;27.35;;;4.07;;
24685;SDS011;12804;51.176;4.452;2023-03-12T15:47:20;21.67;;;3.97;;
24685;SDS011;12804;51.176;4.452;2023-03-12T15:49:55;25.05;;;4.03;;
24685;SDS011;12804;51.176;4.452;2023-03-12T15:52:31;18.88;;;3.95;;
24685;SDS011;12804;51.176;4.452;2023-03-12T15:54:59;27.25;;;4.53;;
24685;SDS011;12804;51.176;4.452;2023-03-12T15:57:25;23.23;;;4.40;;
24685;SDS011;12804;51.176;4.452;2023-03-12T16:05:10;26.35;;;4.53;;
24685;SDS011;12804;51.176;4.452;2023-03-12T16:07:36;27.50;;;4.18;;
24685;SDS011;12804;51.176;4.452;2023-03-12T16:10:03;26.67;;;5.55;;
24685;SDS011;12804;51.176;4.452;2023-03-12T16:12:30;24.27;;;4.45;;
24685;SDS011;12804;51.176;4.452;2023-03-12T16:14:56;23.88;;;4.78;;
24685;SDS011;12804;51.176;4.452;2023-03-12T16:17:22;26.00;;;4.65;;
24685;SDS011;12804;51.176;4.452;2023-03-12T16:19:48;26.13;;;5.03;;
24685;SDS011;12804;51.176;4.452;2023-03-12T16:22:14;29.20;;;5.30;;
24685;SDS011;12804;51.176;4.452;2023-03-12T16:24:41;25.02;;;4.28;;
24685;SDS011;12804;51.176;4.452;2023-03-12T16:27:09;27.17;;;5.60;;
24685;SDS011;12804;51.176;4.452;2023-03-12T16:29:39;27.45;;;4.82;;
24685;SDS011;12804;51.176;4.452;2023-03-12T16:32:12;32.70;;;5.28;;
24685;SDS011;12804;51.176;4.452;2023-03-12T16:34:39;34.95;;;5.05;;
24685;SDS011;12804;51.176;4.452;2023-03-12T16:37:12;27.55;;;4.95;;
24685;SDS011;12804;51.176;4.452;2023-03-12T16:39:38;27.95;;;4.50;;
24685;SDS011;12804;51.176;4.452;2023-03-12T16:42:13;28.23;;;4.85;;
24685;SDS011;12804;51.176;4.452;2023-03-12T16:44:41;28.13;;;4.43;;
24685;SDS011;12804;51.176;4.452;2023-03-12T16:47:12;26.63;;;4.82;;
24685;SDS011;12804;51.176;4.452;2023-03-12T16:49:38;29.65;;;4.88;;
24685;SDS011;12804;51.176;4.452;2023-03-12T16:52:20;29.80;;;6.00;;
24685;SDS011;12804;51.176;4.452;2023-03-12T16:57:19;32.08;;;5.22;;
24685;SDS011;12804;51.176;4.452;2023-03-12T16:59:50;25.77;;;4.88;;